createdAt,value
2022-11-21T00:00:04.740Z,53.40
2022-11-21T00:02:49.735Z,50.17
2022-11-21T00:05:42.012Z,47.20
2022-11-21T00:08:26.699Z,48.50
2022-11-21T00:13:57.258Z,45.72
2022-11-21T00:16:42.209Z,42.10
2022-11-21T00:22:11.682Z,49.53
2022-11-21T00:24:57.449Z,57.50
2022-11-21T00:27:42.315Z,64.68
2022-11-21T00:30:27.837Z,61.92
2022-11-21T00:33:12.340Z,58.83
2022-11-21T00:38:41.830Z,65.82
2022-11-21T00:44:11.226Z,63.90
2022-11-21T00:49:40.686Z,62.15
2022-11-21T00:52:25.765Z,63.33
2022-11-21T00:55:10.686Z,64.50
2022-11-21T01:00:40.918Z,53.08
2022-11-21T01:03:25.763Z,64.72
2022-11-21T01:06:13.219Z,61.38
2022-11-21T01:08:58.242Z,59.95
2022-11-21T01:11:43.153Z,58.22
2022-11-21T01:14:28.310Z,63.80
2022-11-21T01:17:13.349Z,58.38
2022-11-21T01:19:57.888Z,59.45
2022-11-21T01:22:42.815Z,54.80
2022-11-21T01:25:27.785Z,53.03
2022-11-21T01:31:04.970Z,51.30
2022-11-21T01:33:49.879Z,57.65
2022-11-21T01:36:34.977Z,61.95
2022-11-21T01:42:04.449Z,57.28
2022-11-21T01:44:52.815Z,60.53
2022-11-21T01:47:37.814Z,56.42
2022-11-21T01:50:22.512Z,62.40
2022-11-21T01:55:53.032Z,52.10
2022-11-21T01:58:40.540Z,64.15
2022-11-21T02:01:26.897Z,56.13
2022-11-21T02:04:11.824Z,64.10
2022-11-21T02:09:46.342Z,49.90
2022-11-21T02:12:37.717Z,56.17
2022-11-21T02:15:25.237Z,52.90
2022-11-21T02:18:09.751Z,62.50
2022-11-21T02:21:05.965Z,70.45
2022-11-21T02:24:04.888Z,57.92
2022-11-21T02:26:49.545Z,59.17
2022-11-21T02:29:34.516Z,62.55
2022-11-21T02:35:08.508Z,59.50
2022-11-21T02:41:11.088Z,57.00
2022-11-21T02:44:03.245Z,54.03
2022-11-21T02:46:50.317Z,57.28
2022-11-21T02:49:59.535Z,54.75
2022-11-21T02:52:44.110Z,53.88
2022-11-21T02:55:29.193Z,60.90
2022-11-21T02:58:14.261Z,53.33
2022-11-21T03:03:44.210Z,55.67
2022-11-21T03:06:29.236Z,54.65
2022-11-21T03:09:14.136Z,51.97
2022-11-21T03:11:59.038Z,59.88
2022-11-21T03:14:43.956Z,50.95
2022-11-21T03:17:28.882Z,58.38
2022-11-21T03:20:14.042Z,60.25
2022-11-21T03:22:59.010Z,52.92
2022-11-21T03:25:44.095Z,52.05
2022-11-21T03:28:29.300Z,59.50
2022-11-21T03:31:13.913Z,54.75
2022-11-21T03:33:58.897Z,55.75
2022-11-21T03:36:43.664Z,61.40
2022-11-21T03:42:16.104Z,48.17
2022-11-21T03:47:45.461Z,54.15
2022-11-21T03:50:30.375Z,49.83
2022-11-21T03:53:15.219Z,46.10
2022-11-21T03:56:00.167Z,44.90
2022-11-21T03:58:45.232Z,50.88
2022-11-21T04:01:35.247Z,49.60
2022-11-21T04:04:21.345Z,49.45
2022-11-21T04:09:51.289Z,41.97
2022-11-21T04:15:20.885Z,44.13
2022-11-21T04:18:06.102Z,44.53
2022-11-21T04:21:05.093Z,43.10
2022-11-21T04:23:50.263Z,45.70
2022-11-21T04:29:19.670Z,52.03
2022-11-21T04:32:04.852Z,49.85
2022-11-21T04:34:49.921Z,45.78
2022-11-21T04:37:35.005Z,47.33
2022-11-21T04:40:19.849Z,46.95
2022-11-21T04:43:05.697Z,55.47
2022-11-21T04:45:50.268Z,51.42
2022-11-21T04:51:19.924Z,48.50
2022-11-21T04:56:50.070Z,55.67
2022-11-21T05:02:19.705Z,49.30
2022-11-21T05:05:05.156Z,49.88
2022-11-21T05:07:50.151Z,46.70
2022-11-21T05:10:54.950Z,42.65
2022-11-21T05:13:39.532Z,41.15
2022-11-21T05:19:09.137Z,40.67
2022-11-21T05:24:38.451Z,38.63
2022-11-21T05:30:08.579Z,37.00
2022-11-21T05:32:53.473Z,36.88
2022-11-21T05:38:28.574Z,28.05
2022-11-21T05:43:58.188Z,31.85
2022-11-21T05:46:43.317Z,45.45
2022-11-21T05:52:12.509Z,44.53
2022-11-21T05:54:57.354Z,43.78
2022-11-21T06:00:28.402Z,40.67
2022-11-21T06:03:28.274Z,51.03
2022-11-21T06:06:17.660Z,54.45
2022-11-21T06:09:04.538Z,47.15
2022-11-21T06:11:49.311Z,46.33
2022-11-21T06:14:34.189Z,55.10
2022-11-21T06:17:19.258Z,47.67
2022-11-21T06:20:04.638Z,51.63
2022-11-21T06:22:49.810Z,46.78
2022-11-21T06:25:34.770Z,41.55
2022-11-21T06:28:19.607Z,38.05
2022-11-21T06:31:06.443Z,43.78
2022-11-21T06:33:53.191Z,47.85
2022-11-21T06:36:38.526Z,46.70
2022-11-21T06:42:09.333Z,38.50
2022-11-21T06:44:54.242Z,41.22
2022-11-21T06:47:39.138Z,45.38
2022-11-21T06:50:24.382Z,38.15
2022-11-21T06:56:04.853Z,45.53
2022-11-21T06:58:49.784Z,41.33
2022-11-21T07:01:35.313Z,44.20
2022-11-21T07:04:21.567Z,39.47
2022-11-21T07:07:07.291Z,36.17
2022-11-21T07:09:52.468Z,41.75
2022-11-21T07:13:00.720Z,34.00
2022-11-21T07:15:47.209Z,26.42
2022-11-21T07:18:33.584Z,30.92
2022-11-21T07:21:18.635Z,27.02
2022-11-21T07:24:04.029Z,23.95
2022-11-21T07:26:52.060Z,25.23
2022-11-21T07:29:38.461Z,25.88
2022-11-21T07:35:11.979Z,24.73
2022-11-21T07:38:07.047Z,20.35
2022-11-21T07:40:53.093Z,26.50
2022-11-21T07:43:37.842Z,27.65
2022-11-21T07:46:54.988Z,23.77
2022-11-21T07:49:40.608Z,23.15
2022-11-21T07:52:31.747Z,31.10
2022-11-21T07:58:13.368Z,29.65
2022-11-21T08:00:58.460Z,27.33
2022-11-21T08:03:45.505Z,25.33
2022-11-21T08:06:30.409Z,24.95
2022-11-21T08:12:00.451Z,22.58
2022-11-21T08:14:47.156Z,21.75
2022-11-21T08:17:33.113Z,22.75
2022-11-21T08:21:06.164Z,21.15
2022-11-21T08:24:19.260Z,18.73
2022-11-21T08:27:04.569Z,30.83
2022-11-21T08:29:49.740Z,28.52
2022-11-21T08:33:05.106Z,29.75
2022-11-21T08:35:53.910Z,24.67
2022-11-21T08:38:41.504Z,30.60
2022-11-21T08:41:53.361Z,27.90
2022-11-21T08:44:44.216Z,24.67
2022-11-21T08:50:41.701Z,23.58
2022-11-21T08:56:14.861Z,28.38
2022-11-21T08:59:07.407Z,28.52
2022-11-21T09:01:52.965Z,25.33
2022-11-21T09:04:44.111Z,26.25
2022-11-21T09:07:33.596Z,28.80
2022-11-21T09:10:18.635Z,27.20
2022-11-21T09:13:04.153Z,21.25
2022-11-21T09:16:08.030Z,23.42
2022-11-21T09:21:38.548Z,21.88
2022-11-21T09:27:08.622Z,22.10
2022-11-21T09:29:55.791Z,22.23
2022-11-21T09:32:40.889Z,22.02
2022-11-21T09:38:11.038Z,35.05
2022-11-21T09:41:51.568Z,32.10
2022-11-21T09:45:10.485Z,23.88
2022-11-21T09:48:12.261Z,21.13
2022-11-21T09:51:05.561Z,21.00
2022-11-21T09:54:05.213Z,21.40
2022-11-21T09:56:53.189Z,20.67
2022-11-21T09:59:39.580Z,20.90
2022-11-21T10:02:26.016Z,19.63
2022-11-21T10:05:15.616Z,19.17
2022-11-21T10:08:07.621Z,20.88
2022-11-21T10:11:11.540Z,18.05
2022-11-21T10:14:06.247Z,17.25
2022-11-21T10:17:16.984Z,14.32
2022-11-21T10:20:25.426Z,17.10
2022-11-21T10:23:36.280Z,16.08
2022-11-21T10:26:45.381Z,19.40
2022-11-21T10:29:36.849Z,17.33
2022-11-21T10:32:45.412Z,17.73
2022-11-21T10:35:45.507Z,15.75
2022-11-21T10:38:36.306Z,21.05
2022-11-21T10:41:43.873Z,18.38
2022-11-21T10:44:48.423Z,21.33
2022-11-21T10:47:37.241Z,24.00
2022-11-21T10:50:44.849Z,20.85
2022-11-21T10:53:49.860Z,23.05
2022-11-21T10:56:35.919Z,21.88
2022-11-21T10:59:30.495Z,22.48
2022-11-21T11:02:19.161Z,20.60
2022-11-21T11:05:29.151Z,20.48
2022-11-21T11:08:14.808Z,19.33
2022-11-21T11:11:18.174Z,23.38
2022-11-21T11:14:12.950Z,21.08
2022-11-21T11:17:01.929Z,20.17
2022-11-21T11:20:01.083Z,24.15
2022-11-21T11:22:46.070Z,19.25
2022-11-21T11:25:35.327Z,22.60
2022-11-21T11:28:20.965Z,20.55
2022-11-21T11:31:10.109Z,26.48
2022-11-21T11:33:56.267Z,20.23
2022-11-21T11:36:55.782Z,17.80
2022-11-21T11:40:12.411Z,18.13
2022-11-21T11:43:53.630Z,19.10
2022-11-21T11:47:16.318Z,20.63
2022-11-21T11:50:42.091Z,23.77
2022-11-21T11:54:22.604Z,22.63
2022-11-21T11:57:31.262Z,25.27
2022-11-21T12:00:56.533Z,24.95
2022-11-21T12:03:46.981Z,22.02
2022-11-21T12:10:20.322Z,19.88
2022-11-21T12:13:13.334Z,24.17
2022-11-21T12:16:11.927Z,26.08
2022-11-21T12:19:16.507Z,21.25
2022-11-21T12:22:06.008Z,22.33
2022-11-21T12:24:54.093Z,21.83
2022-11-21T12:27:55.852Z,24.52
2022-11-21T12:30:44.603Z,21.52
2022-11-21T12:33:44.143Z,26.50
2022-11-21T12:36:44.150Z,21.75
2022-11-21T12:39:44.177Z,25.13
2022-11-21T12:42:58.708Z,27.15
2022-11-21T12:46:07.778Z,26.55
2022-11-21T12:49:37.289Z,25.40
2022-11-21T12:52:50.254Z,25.92
2022-11-21T12:55:41.875Z,26.05
2022-11-21T12:58:51.914Z,24.63
2022-11-21T13:04:37.818Z,22.95
2022-11-21T13:07:29.211Z,24.25
2022-11-21T13:10:16.686Z,26.10
2022-11-21T13:13:07.616Z,27.00
2022-11-21T13:16:08.205Z,22.55
2022-11-21T13:18:53.502Z,28.50
2022-11-21T13:21:47.324Z,24.08
2022-11-21T13:25:33.709Z,25.17
2022-11-21T13:28:20.806Z,22.45
2022-11-21T13:31:29.604Z,22.20
2022-11-21T13:34:36.819Z,22.95
2022-11-21T13:37:49.918Z,23.88
2022-11-21T13:40:39.338Z,26.58
2022-11-21T13:43:33.166Z,20.60
2022-11-21T13:46:58.125Z,21.40
2022-11-21T13:50:08.863Z,22.27
2022-11-21T13:53:38.514Z,21.85
2022-11-21T13:56:36.693Z,20.20
2022-11-21T13:59:54.847Z,24.15
2022-11-21T14:03:10.200Z,25.35
2022-11-21T14:06:19.649Z,29.85
2022-11-21T14:09:14.119Z,27.00
2022-11-21T14:12:05.328Z,26.63
2022-11-21T14:15:02.212Z,25.45
2022-11-21T14:17:52.763Z,22.75
2022-11-21T14:20:53.869Z,20.58
2022-11-21T14:23:43.734Z,18.20
2022-11-21T14:26:38.330Z,19.77
2022-11-21T14:29:28.661Z,23.92
2022-11-21T14:32:14.641Z,21.95
2022-11-21T14:35:10.981Z,21.05
2022-11-21T14:37:57.895Z,23.05
2022-11-21T14:40:42.995Z,22.73
2022-11-21T14:43:32.923Z,28.35
2022-11-21T14:46:20.879Z,28.58
2022-11-21T14:49:21.443Z,24.83
2022-11-21T14:52:16.763Z,23.25
2022-11-21T14:58:15.744Z,24.92
2022-11-21T15:01:05.240Z,25.65
2022-11-21T15:04:07.671Z,25.90
2022-11-21T15:06:52.498Z,25.33
2022-11-21T16:58:19.646Z,16.30
2022-11-21T17:01:12.398Z,20.98
2022-11-21T17:03:57.671Z,20.02
2022-11-21T17:09:26.934Z,22.50
2022-11-21T17:12:12.740Z,22.08
2022-11-21T17:14:57.535Z,24.35
2022-11-21T17:17:42.823Z,22.50
2022-11-21T17:20:27.904Z,21.33
2022-11-21T17:23:12.952Z,19.25
2022-11-21T17:26:09.167Z,19.77
2022-11-21T17:28:59.373Z,19.25
2022-11-21T17:31:44.430Z,20.38
2022-11-21T17:37:18.062Z,21.73
2022-11-21T17:40:03.650Z,23.48
2022-11-21T17:42:48.507Z,23.05
2022-11-21T17:45:36.647Z,24.02
2022-11-21T17:48:21.536Z,25.50
2022-11-21T17:51:17.939Z,21.90
2022-11-21T17:54:03.360Z,20.00
2022-11-21T17:56:53.804Z,19.25
2022-11-21T17:59:41.211Z,19.92
2022-11-21T18:02:26.645Z,20.95
2022-11-21T18:05:11.439Z,19.30
2022-11-21T18:10:43.803Z,18.60
2022-11-21T18:13:31.166Z,18.17
2022-11-21T18:16:19.142Z,20.85
2022-11-21T18:19:03.906Z,24.00
2022-11-21T18:24:33.404Z,19.73
2022-11-21T18:30:03.756Z,20.38
2022-11-21T18:32:49.015Z,17.63
2022-11-21T18:35:33.942Z,16.77
2022-11-21T18:41:24.843Z,12.95
2022-11-21T18:44:09.809Z,13.40
2022-11-21T18:49:39.128Z,16.33
2022-11-21T18:52:24.250Z,15.57
2022-11-21T18:57:53.554Z,15.55
2022-11-21T19:03:23.027Z,14.40
2022-11-21T19:06:17.092Z,14.60
2022-11-21T19:09:01.844Z,16.48
2022-11-21T19:11:47.102Z,13.80
2022-11-21T19:14:31.868Z,18.55
2022-11-21T19:20:01.883Z,17.85
2022-11-21T19:22:46.827Z,19.73
2022-11-21T19:28:16.713Z,14.40
2022-11-21T19:31:03.324Z,18.95
2022-11-21T19:33:48.209Z,15.75
2022-11-21T19:36:33.136Z,14.63
2022-11-21T19:42:02.657Z,15.02
2022-11-21T19:47:33.338Z,18.67
2022-11-21T19:50:18.319Z,15.77
2022-11-21T19:53:02.760Z,19.58
2022-11-21T19:55:47.792Z,19.52
2022-11-21T19:58:32.617Z,21.70
2022-11-21T20:04:05.358Z,20.48
2022-11-21T20:06:50.381Z,19.38
2022-11-21T20:12:20.709Z,14.70
2022-11-21T20:15:06.421Z,14.20
2022-11-21T20:17:52.077Z,16.65
2022-11-21T20:20:36.739Z,13.93
2022-11-21T20:23:21.539Z,13.88
2022-11-21T20:28:53.424Z,13.98
2022-11-21T20:31:38.786Z,14.82
2022-11-21T20:34:23.365Z,14.90
2022-11-21T20:39:52.933Z,14.57
2022-11-21T20:42:38.403Z,18.85
2022-11-21T20:46:07.065Z,16.90
2022-11-21T20:48:27.817Z,18.85
2022-11-21T20:54:18.340Z,17.65
2022-11-21T20:59:47.991Z,17.20
2022-11-21T21:02:32.678Z,19.08
2022-11-21T21:08:02.278Z,17.52
2022-11-21T21:13:51.691Z,20.48
2022-11-21T21:16:36.574Z,18.02
2022-11-21T21:22:08.313Z,18.05
2022-11-21T21:24:53.174Z,17.73
2022-11-21T21:30:23.146Z,17.48
2022-11-21T21:33:09.175Z,20.77
2022-11-21T21:35:53.905Z,22.38
2022-11-21T21:38:39.170Z,25.20
2022-11-21T21:41:25.404Z,26.10
2022-11-21T21:44:09.987Z,30.10
2022-11-21T21:49:39.308Z,24.88
2022-11-21T21:52:24.073Z,31.33
2022-11-21T21:57:54.917Z,22.85
2022-11-21T22:00:41.085Z,24.20
2022-11-21T22:03:26.102Z,24.50
2022-11-21T22:06:14.888Z,24.33
2022-11-21T22:08:59.940Z,19.92
2022-11-21T22:12:03.333Z,24.92
2022-11-21T22:14:48.314Z,21.60
2022-11-21T22:17:33.126Z,24.83
2022-11-21T22:24:32.147Z,21.92
2022-11-21T22:27:17.157Z,17.15
2022-11-21T22:30:01.958Z,20.38
2022-11-21T22:32:47.248Z,16.13
2022-11-21T22:35:32.854Z,23.10
2022-11-21T22:38:18.280Z,20.08
2022-11-21T22:41:12.878Z,21.77
2022-11-21T22:43:58.942Z,21.25
2022-11-21T22:46:43.684Z,22.17
2022-11-21T22:49:29.015Z,19.92
2022-11-21T22:52:14.244Z,20.02
2022-11-21T22:54:59.413Z,20.48
2022-11-21T23:01:08.677Z,17.58
2022-11-21T23:03:55.140Z,17.02
2022-11-21T23:06:48.987Z,20.90
2022-11-21T23:09:34.347Z,18.92
2022-11-21T23:12:18.904Z,16.42
2022-11-21T23:18:39.398Z,18.30
2022-11-21T23:21:24.346Z,21.45
2022-11-21T23:24:09.574Z,19.23
2022-11-21T23:26:54.754Z,19.38
2022-11-21T23:32:24.829Z,17.38
2022-11-21T23:35:09.708Z,17.35
2022-11-21T23:37:54.679Z,19.15
2022-11-21T23:40:39.569Z,17.65
2022-11-21T23:46:09.356Z,20.00
2022-11-21T23:51:39.457Z,20.42
2022-11-21T23:54:24.317Z,19.13
2022-11-21T23:57:09.779Z,25.08
2022-11-21T23:59:54.545Z,24.05
